sensor_id;sensor_type;location;lat;lon;timestamp;temperature;humidity
58983;DHT22;44771;49.982;8.560;2022-11-28T00:00:33;4.30;99.90
58983;DHT22;44771;49.982;8.560;2022-11-28T00:05:37;4.10;99.90
58983;DHT22;44771;49.982;8.560;2022-11-28T00:10:47;4.20;99.90
58983;DHT22;44771;49.982;8.560;2022-11-28T00:15:54;4.20;99.90
58983;DHT22;44771;49.982;8.560;2022-11-28T00:21:00;4.00;99.90
58983;DHT22;44771;49.982;8.560;2022-11-28T00:26:04;4.00;99.90
58983;DHT22;44771;49.982;8.560;2022-11-28T00:31:11;3.60;99.90
58983;DHT22;44771;49.982;8.560;2022-11-28T00:36:15;3.50;99.90
58983;DHT22;44771;49.982;8.560;2022-11-28T00:41:19;3.40;99.90
58983;DHT22;44771;49.982;8.560;2022-11-28T00:46:21;3.30;99.90
58983;DHT22;44771;49.982;8.560;2022-11-28T00:51:28;3.20;99.90
58983;DHT22;44771;49.982;8.560;2022-11-28T00:56:32;3.10;99.90
58983;DHT22;44771;49.982;8.560;2022-11-28T01:01:38;3.00;99.90
58983;DHT22;44771;49.982;8.560;2022-11-28T01:06:44;2.90;99.90
58983;DHT22;44771;49.982;8.560;2022-11-28T01:11:47;2.80;99.90
58983;DHT22;44771;49.982;8.560;2022-11-28T01:16:50;2.80;99.90
58983;DHT22;44771;49.982;8.560;2022-11-28T01:21:53;2.90;99.90
58983;DHT22;44771;49.982;8.560;2022-11-28T01:26:54;3.10;99.90
58983;DHT22;44771;49.982;8.560;2022-11-28T01:31:56;2.80;99.90
58983;DHT22;44771;49.982;8.560;2022-11-28T01:37:00;2.80;99.90
58983;DHT22;44771;49.982;8.560;2022-11-28T01:42:01;2.90;99.90
58983;DHT22;44771;49.982;8.560;2022-11-28T01:47:03;3.00;99.90
58983;DHT22;44771;49.982;8.560;2022-11-28T01:52:10;3.00;99.90
58983;DHT22;44771;49.982;8.560;2022-11-28T01:57:16;3.10;99.90
58983;DHT22;44771;49.982;8.560;2022-11-28T02:02:24;3.00;99.90
58983;DHT22;44771;49.982;8.560;2022-11-28T02:07:28;3.10;99.90
58983;DHT22;44771;49.982;8.560;2022-11-28T02:18:28;3.30;99.90
58983;DHT22;44771;49.982;8.560;2022-11-28T02:23:55;3.60;99.90
58983;DHT22;44771;49.982;8.560;2022-11-28T02:35:10;3.10;99.90
58983;DHT22;44771;49.982;8.560;2022-11-28T02:40:20;3.00;99.90
58983;DHT22;44771;49.982;8.560;2022-11-28T02:45:29;3.10;99.90
58983;DHT22;44771;49.982;8.560;2022-11-28T02:50:38;3.20;99.90
58983;DHT22;44771;49.982;8.560;2022-11-28T02:55:42;3.20;99.90
58983;DHT22;44771;49.982;8.560;2022-11-28T03:00:46;3.10;99.90
58983;DHT22;44771;49.982;8.560;2022-11-28T03:05:55;3.00;99.90
58983;DHT22;44771;49.982;8.560;2022-11-28T03:11:02;3.00;99.90
58983;DHT22;44771;49.982;8.560;2022-11-28T03:16:16;2.80;99.90
58983;DHT22;44771;49.982;8.560;2022-11-28T03:21:35;2.80;99.90
58983;DHT22;44771;49.982;8.560;2022-11-28T03:26:44;3.20;99.90
58983;DHT22;44771;49.982;8.560;2022-11-28T03:31:49;3.40;99.90
58983;DHT22;44771;49.982;8.560;2022-11-28T03:36:57;3.50;99.90
58983;DHT22;44771;49.982;8.560;2022-11-28T03:42:03;3.40;99.90
58983;DHT22;44771;49.982;8.560;2022-11-28T03:47:08;3.50;99.90
58983;DHT22;44771;49.982;8.560;2022-11-28T03:52:15;3.50;99.90
58983;DHT22;44771;49.982;8.560;2022-11-28T03:57:23;3.60;99.90
58983;DHT22;44771;49.982;8.560;2022-11-28T04:02:29;3.70;99.90
58983;DHT22;44771;49.982;8.560;2022-11-28T04:07:37;3.80;99.90
58983;DHT22;44771;49.982;8.560;2022-11-28T04:12:48;3.80;99.90
58983;DHT22;44771;49.982;8.560;2022-11-28T04:17:54;3.80;99.90
58983;DHT22;44771;49.982;8.560;2022-11-28T04:23:03;3.90;99.90
58983;DHT22;44771;49.982;8.560;2022-11-28T04:28:10;3.80;99.90
58983;DHT22;44771;49.982;8.560;2022-11-28T04:33:15;3.70;99.90
58983;DHT22;44771;49.982;8.560;2022-11-28T04:38:22;3.80;99.90
58983;DHT22;44771;49.982;8.560;2022-11-28T04:43:27;4.00;99.90
58983;DHT22;44771;49.982;8.560;2022-11-28T04:48:30;3.90;99.90
58983;DHT22;44771;49.982;8.560;2022-11-28T04:53:42;3.70;99.90
58983;DHT22;44771;49.982;8.560;2022-11-28T04:58:47;3.90;99.90
58983;DHT22;44771;49.982;8.560;2022-11-28T05:03:50;3.90;99.90
58983;DHT22;44771;49.982;8.560;2022-11-28T05:08:53;3.70;99.90
58983;DHT22;44771;49.982;8.560;2022-11-28T05:13:55;3.70;99.90
58983;DHT22;44771;49.982;8.560;2022-11-28T05:18:57;3.50;99.90
58983;DHT22;44771;49.982;8.560;2022-11-28T05:24:00;3.60;99.90
58983;DHT22;44771;49.982;8.560;2022-11-28T05:29:02;3.40;99.90
58983;DHT22;44771;49.982;8.560;2022-11-28T05:34:04;3.20;99.90
58983;DHT22;44771;49.982;8.560;2022-11-28T05:39:07;3.10;99.90
58983;DHT22;44771;49.982;8.560;2022-11-28T05:44:09;3.00;99.90
58983;DHT22;44771;49.982;8.560;2022-11-28T05:49:11;3.30;99.90
58983;DHT22;44771;49.982;8.560;2022-11-28T05:54:14;3.20;99.90
58983;DHT22;44771;49.982;8.560;2022-11-28T05:59:16;3.10;99.90
58983;DHT22;44771;49.982;8.560;2022-11-28T06:04:17;3.20;99.90
58983;DHT22;44771;49.982;8.560;2022-11-28T06:09:21;3.00;99.90
58983;DHT22;44771;49.982;8.560;2022-11-28T06:14:26;2.90;99.90
58983;DHT22;44771;49.982;8.560;2022-11-28T06:19:28;2.70;99.90
58983;DHT22;44771;49.982;8.560;2022-11-28T06:24:31;2.70;99.90
58983;DHT22;44771;49.982;8.560;2022-11-28T06:29:33;2.60;99.90
58983;DHT22;44771;49.982;8.560;2022-11-28T06:34:35;2.50;99.90
58983;DHT22;44771;49.982;8.560;2022-11-28T06:39:38;2.50;99.90
58983;DHT22;44771;49.982;8.560;2022-11-28T06:44:40;2.40;99.90
58983;DHT22;44771;49.982;8.560;2022-11-28T06:49:42;2.40;99.90
58983;DHT22;44771;49.982;8.560;2022-11-28T06:54:45;2.30;99.90
58983;DHT22;44771;49.982;8.560;2022-11-28T06:59:48;2.20;99.90
58983;DHT22;44771;49.982;8.560;2022-11-28T07:04:50;2.10;99.90
58983;DHT22;44771;49.982;8.560;2022-11-28T07:09:53;2.10;99.90
58983;DHT22;44771;49.982;8.560;2022-11-28T07:14:55;2.10;99.90
58983;DHT22;44771;49.982;8.560;2022-11-28T07:19:57;2.00;99.90
58983;DHT22;44771;49.982;8.560;2022-11-28T07:25:00;2.00;99.90
58983;DHT22;44771;49.982;8.560;2022-11-28T07:30:02;2.00;99.90
58983;DHT22;44771;49.982;8.560;2022-11-28T07:35:04;2.10;99.90
58983;DHT22;44771;49.982;8.560;2022-11-28T07:40:08;2.10;99.90
58983;DHT22;44771;49.982;8.560;2022-11-28T07:45:10;2.20;99.90
58983;DHT22;44771;49.982;8.560;2022-11-28T07:50:12;2.20;99.90
58983;DHT22;44771;49.982;8.560;2022-11-28T07:55:15;2.40;99.90
58983;DHT22;44771;49.982;8.560;2022-11-28T08:00:18;2.40;99.90
58983;DHT22;44771;49.982;8.560;2022-11-28T08:05:20;2.40;99.90
58983;DHT22;44771;49.982;8.560;2022-11-28T08:10:23;2.40;99.90
58983;DHT22;44771;49.982;8.560;2022-11-28T08:15:25;2.70;99.90
58983;DHT22;44771;49.982;8.560;2022-11-28T08:20:26;2.70;99.90
58983;DHT22;44771;49.982;8.560;2022-11-28T08:25:30;2.70;99.90
58983;DHT22;44771;49.982;8.560;2022-11-28T08:30:31;2.80;99.90
58983;DHT22;44771;49.982;8.560;2022-11-28T08:35:33;2.90;99.90
58983;DHT22;44771;49.982;8.560;2022-11-28T08:40:36;3.10;99.90
58983;DHT22;44771;49.982;8.560;2022-11-28T08:45:38;3.20;99.90
58983;DHT22;44771;49.982;8.560;2022-11-28T08:50:45;3.30;99.90
58983;DHT22;44771;49.982;8.560;2022-11-28T08:55:50;3.60;99.90
58983;DHT22;44771;49.982;8.560;2022-11-28T09:00:52;3.70;99.90
58983;DHT22;44771;49.982;8.560;2022-11-28T09:05:59;3.80;99.90
58983;DHT22;44771;49.982;8.560;2022-11-28T09:11:05;4.00;99.90
58983;DHT22;44771;49.982;8.560;2022-11-28T09:16:08;4.20;99.90
58983;DHT22;44771;49.982;8.560;2022-11-28T09:21:12;4.50;99.90
58983;DHT22;44771;49.982;8.560;2022-11-28T09:26:17;4.80;99.90
58983;DHT22;44771;49.982;8.560;2022-11-28T09:31:20;4.80;99.90
58983;DHT22;44771;49.982;8.560;2022-11-28T09:36:23;4.90;99.90
58983;DHT22;44771;49.982;8.560;2022-11-28T09:46:51;5.30;99.90
58983;DHT22;44771;49.982;8.560;2022-11-28T09:51:57;5.30;99.90
58983;DHT22;44771;49.982;8.560;2022-11-28T09:57:02;5.40;99.90
58983;DHT22;44771;49.982;8.560;2022-11-28T10:02:21;5.50;99.90
58983;DHT22;44771;49.982;8.560;2022-11-28T10:07:28;5.60;99.90
58983;DHT22;44771;49.982;8.560;2022-11-28T10:12:41;5.60;99.90
58983;DHT22;44771;49.982;8.560;2022-11-28T10:17:50;5.60;99.90
58983;DHT22;44771;49.982;8.560;2022-11-28T10:22:56;5.70;99.90
58983;DHT22;44771;49.982;8.560;2022-11-28T10:28:00;5.90;99.90
58983;DHT22;44771;49.982;8.560;2022-11-28T10:33:07;5.80;99.90
58983;DHT22;44771;49.982;8.560;2022-11-28T10:38:11;5.90;99.90
58983;DHT22;44771;49.982;8.560;2022-11-28T10:43:23;6.10;99.90
58983;DHT22;44771;49.982;8.560;2022-11-28T10:48:35;6.10;99.90
58983;DHT22;44771;49.982;8.560;2022-11-28T10:53:46;6.20;99.90
58983;DHT22;44771;49.982;8.560;2022-11-28T10:58:58;6.30;99.90
58983;DHT22;44771;49.982;8.560;2022-11-28T11:04:03;6.40;99.90
58983;DHT22;44771;49.982;8.560;2022-11-28T11:09:05;6.40;99.90
58983;DHT22;44771;49.982;8.560;2022-11-28T11:14:16;6.50;99.90
58983;DHT22;44771;49.982;8.560;2022-11-28T11:19:29;6.60;99.90
58983;DHT22;44771;49.982;8.560;2022-11-28T11:24:31;6.70;99.90
58983;DHT22;44771;49.982;8.560;2022-11-28T11:29:36;6.90;99.90
58983;DHT22;44771;49.982;8.560;2022-11-28T11:34:44;6.90;99.90
58983;DHT22;44771;49.982;8.560;2022-11-28T11:39:48;7.00;99.90
58983;DHT22;44771;49.982;8.560;2022-11-28T11:44:52;7.00;99.90
58983;DHT22;44771;49.982;8.560;2022-11-28T11:50:02;6.90;99.90
58983;DHT22;44771;49.982;8.560;2022-11-28T11:55:10;6.70;99.90
58983;DHT22;44771;49.982;8.560;2022-11-28T12:00:18;6.50;99.90
58983;DHT22;44771;49.982;8.560;2022-11-28T12:05:23;6.30;99.90
58983;DHT22;44771;49.982;8.560;2022-11-28T12:10:29;6.30;99.90
58983;DHT22;44771;49.982;8.560;2022-11-28T12:15:41;6.30;99.90
58983;DHT22;44771;49.982;8.560;2022-11-28T12:21:00;6.30;99.90
58983;DHT22;44771;49.982;8.560;2022-11-28T12:26:14;6.20;99.90
58983;DHT22;44771;49.982;8.560;2022-11-28T12:31:29;6.20;99.90
58983;DHT22;44771;49.982;8.560;2022-11-28T12:36:41;6.00;99.90
58983;DHT22;44771;49.982;8.560;2022-11-28T12:47:29;6.00;99.90
58983;DHT22;44771;49.982;8.560;2022-11-28T12:52:42;6.00;99.90
58983;DHT22;44771;49.982;8.560;2022-11-28T12:57:51;6.00;99.90
58983;DHT22;44771;49.982;8.560;2022-11-28T13:03:06;6.00;99.90
58983;DHT22;44771;49.982;8.560;2022-11-28T13:08:40;6.00;99.90
58983;DHT22;44771;49.982;8.560;2022-11-28T13:13:52;6.10;99.90
58983;DHT22;44771;49.982;8.560;2022-11-28T13:19:00;6.10;99.90
58983;DHT22;44771;49.982;8.560;2022-11-28T13:24:12;6.10;99.90
58983;DHT22;44771;49.982;8.560;2022-11-28T13:29:24;6.00;99.90
58983;DHT22;44771;49.982;8.560;2022-11-28T13:34:29;6.00;99.90
58983;DHT22;44771;49.982;8.560;2022-11-28T13:39:34;6.00;99.90
58983;DHT22;44771;49.982;8.560;2022-11-28T13:44:44;5.90;99.90
58983;DHT22;44771;49.982;8.560;2022-11-28T13:50:30;6.00;99.90
58983;DHT22;44771;49.982;8.560;2022-11-28T13:55:39;6.00;99.90
58983;DHT22;44771;49.982;8.560;2022-11-28T14:00:42;6.00;99.90
58983;DHT22;44771;49.982;8.560;2022-11-28T14:05:53;6.00;99.90
58983;DHT22;44771;49.982;8.560;2022-11-28T14:11:10;6.10;99.90
58983;DHT22;44771;49.982;8.560;2022-11-28T14:16:31;6.10;99.90
58983;DHT22;44771;49.982;8.560;2022-11-28T14:21:48;6.10;99.90
58983;DHT22;44771;49.982;8.560;2022-11-28T14:26:57;6.10;99.90
58983;DHT22;44771;49.982;8.560;2022-11-28T14:32:00;6.10;99.90
58983;DHT22;44771;49.982;8.560;2022-11-28T14:37:51;6.10;99.90
58983;DHT22;44771;49.982;8.560;2022-11-28T14:43:20;6.00;99.90
58983;DHT22;44771;49.982;8.560;2022-11-28T14:48:31;6.00;99.90
58983;DHT22;44771;49.982;8.560;2022-11-28T14:53:44;6.00;99.90
58983;DHT22;44771;49.982;8.560;2022-11-28T14:58:49;6.00;99.90
58983;DHT22;44771;49.982;8.560;2022-11-28T15:03:56;5.90;99.90
58983;DHT22;44771;49.982;8.560;2022-11-28T15:09:05;5.90;99.90
58983;DHT22;44771;49.982;8.560;2022-11-28T15:14:14;5.80;99.90
58983;DHT22;44771;49.982;8.560;2022-11-28T15:19:22;5.80;99.90
58983;DHT22;44771;49.982;8.560;2022-11-28T15:24:28;5.80;99.90
58983;DHT22;44771;49.982;8.560;2022-11-28T15:29:30;5.70;99.90
58983;DHT22;44771;49.982;8.560;2022-11-28T15:34:33;5.70;99.90
58983;DHT22;44771;49.982;8.560;2022-11-28T15:39:39;5.60;99.90
58983;DHT22;44771;49.982;8.560;2022-11-28T15:44:42;5.50;99.90
58983;DHT22;44771;49.982;8.560;2022-11-28T15:49:44;5.50;99.90
58983;DHT22;44771;49.982;8.560;2022-11-28T15:54:48;5.50;99.90
58983;DHT22;44771;49.982;8.560;2022-11-28T15:59:50;5.50;99.90
58983;DHT22;44771;49.982;8.560;2022-11-28T16:04:56;5.40;99.90
58983;DHT22;44771;49.982;8.560;2022-11-28T16:10:05;5.40;99.90
58983;DHT22;44771;49.982;8.560;2022-11-28T16:15:16;5.50;99.90
58983;DHT22;44771;49.982;8.560;2022-11-28T16:20:20;5.50;99.90
58983;DHT22;44771;49.982;8.560;2022-11-28T16:25:26;5.50;99.90
58983;DHT22;44771;49.982;8.560;2022-11-28T16:30:33;5.50;99.90
58983;DHT22;44771;49.982;8.560;2022-11-28T16:35:36;5.40;99.90
58983;DHT22;44771;49.982;8.560;2022-11-28T16:40:40;5.40;99.90
58983;DHT22;44771;49.982;8.560;2022-11-28T16:45:42;5.40;99.90
58983;DHT22;44771;49.982;8.560;2022-11-28T16:56:25;5.40;99.90
58983;DHT22;44771;49.982;8.560;2022-11-28T17:01:27;5.40;99.90
58983;DHT22;44771;49.982;8.560;2022-11-28T17:06:32;5.40;99.90
58983;DHT22;44771;49.982;8.560;2022-11-28T17:11:42;5.40;99.90
58983;DHT22;44771;49.982;8.560;2022-11-28T17:16:50;5.40;99.90
58983;DHT22;44771;49.982;8.560;2022-11-28T17:21:54;5.30;99.90
58983;DHT22;44771;49.982;8.560;2022-11-28T17:26:58;5.30;99.90
58983;DHT22;44771;49.982;8.560;2022-11-28T17:32:00;5.30;99.90
58983;DHT22;44771;49.982;8.560;2022-11-28T17:37:02;5.20;99.90
58983;DHT22;44771;49.982;8.560;2022-11-28T17:42:05;5.30;99.90
58983;DHT22;44771;49.982;8.560;2022-11-28T17:47:07;5.30;99.90
58983;DHT22;44771;49.982;8.560;2022-11-28T17:52:09;5.20;99.90
58983;DHT22;44771;49.982;8.560;2022-11-28T17:57:12;5.20;99.90
58983;DHT22;44771;49.982;8.560;2022-11-28T18:02:14;5.20;99.90
58983;DHT22;44771;49.982;8.560;2022-11-28T18:07:15;5.20;99.90
58983;DHT22;44771;49.982;8.560;2022-11-28T18:12:19;5.20;99.90
58983;DHT22;44771;49.982;8.560;2022-11-28T18:17:20;5.20;99.90
58983;DHT22;44771;49.982;8.560;2022-11-28T18:22:22;5.20;99.90
58983;DHT22;44771;49.982;8.560;2022-11-28T18:27:25;5.20;99.90
58983;DHT22;44771;49.982;8.560;2022-11-28T18:32:27;5.20;99.90
58983;DHT22;44771;49.982;8.560;2022-11-28T18:37:29;5.20;99.90
58983;DHT22;44771;49.982;8.560;2022-11-28T18:42:33;5.20;99.90
58983;DHT22;44771;49.982;8.560;2022-11-28T18:47:34;5.30;99.90
58983;DHT22;44771;49.982;8.560;2022-11-28T18:52:45;5.20;99.90
58983;DHT22;44771;49.982;8.560;2022-11-28T18:58:00;5.20;99.90
58983;DHT22;44771;49.982;8.560;2022-11-28T19:03:02;5.30;99.90
58983;DHT22;44771;49.982;8.560;2022-11-28T19:08:03;5.30;99.90
58983;DHT22;44771;49.982;8.560;2022-11-28T19:13:07;5.20;99.90
58983;DHT22;44771;49.982;8.560;2022-11-28T19:18:08;5.20;99.90
58983;DHT22;44771;49.982;8.560;2022-11-28T19:23:10;5.10;99.90
58983;DHT22;44771;49.982;8.560;2022-11-28T19:28:14;5.10;99.90
58983;DHT22;44771;49.982;8.560;2022-11-28T19:33:21;5.20;99.90
58983;DHT22;44771;49.982;8.560;2022-11-28T19:38:23;5.20;99.90
58983;DHT22;44771;49.982;8.560;2022-11-28T19:43:26;5.20;99.90
58983;DHT22;44771;49.982;8.560;2022-11-28T19:48:29;5.30;99.90
58983;DHT22;44771;49.982;8.560;2022-11-28T19:53:38;5.20;99.90
58983;DHT22;44771;49.982;8.560;2022-11-28T19:58:42;5.10;99.90
58983;DHT22;44771;49.982;8.560;2022-11-28T20:03:44;5.10;99.90
58983;DHT22;44771;49.982;8.560;2022-11-28T20:08:48;5.10;99.90
58983;DHT22;44771;49.982;8.560;2022-11-28T20:13:56;5.00;99.90
58983;DHT22;44771;49.982;8.560;2022-11-28T20:18:59;5.00;99.90
58983;DHT22;44771;49.982;8.560;2022-11-28T20:24:04;5.00;99.90
58983;DHT22;44771;49.982;8.560;2022-11-28T20:29:08;5.10;99.90
58983;DHT22;44771;49.982;8.560;2022-11-28T20:34:13;5.00;99.90
58983;DHT22;44771;49.982;8.560;2022-11-28T20:39:15;5.10;99.90
58983;DHT22;44771;49.982;8.560;2022-11-28T20:44:19;5.10;99.90
58983;DHT22;44771;49.982;8.560;2022-11-28T20:49:21;5.10;99.90
58983;DHT22;44771;49.982;8.560;2022-11-28T20:54:22;5.20;99.90
58983;DHT22;44771;49.982;8.560;2022-11-28T20:59:26;5.20;99.90
58983;DHT22;44771;49.982;8.560;2022-11-28T21:04:27;5.20;99.90
58983;DHT22;44771;49.982;8.560;2022-11-28T21:09:29;5.20;99.90
58983;DHT22;44771;49.982;8.560;2022-11-28T21:14:33;5.20;99.90
58983;DHT22;44771;49.982;8.560;2022-11-28T21:19:34;5.20;99.90
58983;DHT22;44771;49.982;8.560;2022-11-28T21:24:36;5.20;99.90
58983;DHT22;44771;49.982;8.560;2022-11-28T21:29:39;5.10;99.90
58983;DHT22;44771;49.982;8.560;2022-11-28T21:34:41;5.10;99.90
58983;DHT22;44771;49.982;8.560;2022-11-28T21:39:43;5.10;99.90
58983;DHT22;44771;49.982;8.560;2022-11-28T21:44:50;5.10;99.90
58983;DHT22;44771;49.982;8.560;2022-11-28T21:49:52;5.10;99.90
58983;DHT22;44771;49.982;8.560;2022-11-28T21:54:53;5.10;99.90
58983;DHT22;44771;49.982;8.560;2022-11-28T21:59:56;5.10;99.90
58983;DHT22;44771;49.982;8.560;2022-11-28T22:04:58;5.20;99.90
58983;DHT22;44771;49.982;8.560;2022-11-28T22:10:00;5.30;99.90
58983;DHT22;44771;49.982;8.560;2022-11-28T22:15:04;5.20;99.90
58983;DHT22;44771;49.982;8.560;2022-11-28T22:20:07;5.10;99.90
58983;DHT22;44771;49.982;8.560;2022-11-28T22:25:09;5.10;99.90
58983;DHT22;44771;49.982;8.560;2022-11-28T22:30:13;5.10;99.90
58983;DHT22;44771;49.982;8.560;2022-11-28T22:35:15;5.10;99.90
58983;DHT22;44771;49.982;8.560;2022-11-28T22:40:16;5.10;99.90
58983;DHT22;44771;49.982;8.560;2022-11-28T22:45:20;5.10;99.90
58983;DHT22;44771;49.982;8.560;2022-11-28T22:50:22;5.10;99.90
58983;DHT22;44771;49.982;8.560;2022-11-28T22:55:23;5.20;99.90
58983;DHT22;44771;49.982;8.560;2022-11-28T23:00:26;5.40;99.90
58983;DHT22;44771;49.982;8.560;2022-11-28T23:05:28;5.40;99.90
58983;DHT22;44771;49.982;8.560;2022-11-28T23:10:30;5.30;99.90
58983;DHT22;44771;49.982;8.560;2022-11-28T23:15:33;5.30;99.90
58983;DHT22;44771;49.982;8.560;2022-11-28T23:20:36;5.40;99.90
58983;DHT22;44771;49.982;8.560;2022-11-28T23:25:37;5.60;99.90
58983;DHT22;44771;49.982;8.560;2022-11-28T23:30:40;5.60;99.90
58983;DHT22;44771;49.982;8.560;2022-11-28T23:35:42;5.60;99.90
58983;DHT22;44771;49.982;8.560;2022-11-28T23:40:44;5.60;99.90
58983;DHT22;44771;49.982;8.560;2022-11-28T23:45:47;5.50;99.90
58983;DHT22;44771;49.982;8.560;2022-11-28T23:50:49;5.60;99.90
58983;DHT22;44771;49.982;8.560;2022-11-28T23:55:50;5.60;99.90
